Time;durP1;ratioP1;P1;durP2;ratioP2;P2;SDS_P1;SDS_P2;PMS_P1;PMS_P2;Temp;Humidity;BMP_temperature;BMP_pressure;BME280_temperature;BME280_humidity;BME280_pressure;Samples;Min_cycle;Max_cycle;Signal;HPM_P1;HPM_P2
2022/04/15 00:02:19;;;;;;;;;2.50;0.00;;;;;;;;5079828;28;51089;-49
2022/04/15 00:05:40;;;;;;;;;3.25;0.50;;;;;;;;5079529;28;51154;-50
2022/04/15 00:08:30;;;;;;;;;0.00;0.00;;;;;;;;5080010;28;51123;-50
2022/04/15 00:11:25;;;;;;;;;2.00;1.25;;;;;;;;5078749;28;51130;-51
2022/04/15 00:14:16;;;;;;;;;0.25;0.25;;;;;;;;5079745;28;51009;-50
2022/04/15 00:17:02;;;;;;;;;0.25;0.00;;;;;;;;5079332;28;51209;-48
2022/04/15 00:19:48;;;;;;;;;0.50;0.00;;;;;;;;5079603;28;51090;-51
2022/04/15 00:22:37;;;;;;;;;2.50;1.00;;;;;;;;5079655;28;51083;-49
2022/04/15 00:25:24;;;;;;;;;0.00;0.00;;;;;;;;5079239;28;51142;-50
2022/04/15 00:28:20;;;;;;;;;1.50;0.75;;;;;;;;5079618;28;51079;-50
2022/04/15 00:31:05;;;;;;;;;4.75;1.00;;;;;;;;5078977;28;51133;-48
2022/04/15 00:33:50;;;;;;;;;1.00;0.00;;;;;;;;5079763;28;51058;-48
2022/04/15 00:36:36;;;;;;;;;1.25;0.00;;;;;;;;5079491;28;51071;-49
2022/04/15 00:39:21;;;;;;;;;2.75;1.50;;;;;;;;5078257;28;51055;-50
2022/04/15 00:42:08;;;;;;;;;0.75;0.75;;;;;;;;5079557;28;51038;-50
2022/04/15 00:44:59;;;;;;;;;3.00;0.00;;;;;;;;5064169;28;51046;-51
2022/04/15 00:47:48;;;;;;;;;2.50;1.00;;;;;;;;5075553;28;51363;-50
2022/04/15 00:50:34;;;;;;;;;1.75;1.25;;;;;;;;5078925;28;51197;-49
2022/04/15 00:53:42;;;;;;;;;2.75;1.00;;;;;;;;5080930;27;51067;-49
2022/04/15 00:56:47;;;;;;;;;0.25;0.25;;;;;;;;5081407;27;51144;-50
2022/04/15 00:59:38;;;;;;;;;3.25;0.25;;;;;;;;5067454;27;51382;-49
2022/04/15 01:02:26;;;;;;;;;2.50;1.00;;;;;;;;5082482;27;51041;-51
2022/04/15 01:05:13;;;;;;;;;1.75;1.00;;;;;;;;5080960;27;51112;-47
2022/04/15 01:07:57;;;;;;;;;0.25;0.00;;;;;;;;5082207;27;51583;-50
2022/04/15 01:10:45;;;;;;;;;0.75;0.75;;;;;;;;5082979;27;51096;-49
2022/04/15 01:13:32;;;;;;;;;3.00;1.25;;;;;;;;5082633;27;51497;-51
2022/04/15 01:16:18;;;;;;;;;1.00;0.00;;;;;;;;5082674;27;51198;-51
2022/04/15 01:19:03;;;;;;;;;1.25;0.75;;;;;;;;5082916;27;51119;-50
2022/04/15 01:21:49;;;;;;;;;0.75;0.00;;;;;;;;5082837;27;51216;-49
2022/04/15 01:24:45;;;;;;;;;4.25;1.00;;;;;;;;5082593;27;51233;-51
2022/04/15 01:27:33;;;;;;;;;2.50;0.50;;;;;;;;5082246;27;51173;-51
2022/04/15 01:30:19;;;;;;;;;2.50;0.75;;;;;;;;5082764;27;51177;-49
2022/04/15 01:33:06;;;;;;;;;2.50;0.00;;;;;;;;5082423;27;51098;-49
2022/04/15 01:36:03;;;;;;;;;3.00;0.50;;;;;;;;5081915;27;51159;-51
2022/04/15 01:38:48;;;;;;;;;1.00;1.00;;;;;;;;5082124;27;51254;-48
2022/04/15 01:41:37;;;;;;;;;1.75;0.00;;;;;;;;5082018;27;51205;-49
2022/04/15 01:44:23;;;;;;;;;4.25;0.25;;;;;;;;5082294;27;51108;-52
2022/04/15 01:47:08;;;;;;;;;1.75;0.00;;;;;;;;5082148;27;51021;-49
2022/04/15 01:49:54;;;;;;;;;1.25;1.00;;;;;;;;5082160;27;51516;-49
2022/04/15 01:52:41;;;;;;;;;4.75;0.75;;;;;;;;5081917;27;51063;-51
2022/04/15 01:55:26;;;;;;;;;2.75;0.50;;;;;;;;5081861;27;51229;-49
2022/04/15 01:58:11;;;;;;;;;3.25;0.75;;;;;;;;5082109;27;51438;-51
2022/04/15 02:00:56;;;;;;;;;3.25;0.75;;;;;;;;5081795;27;51021;-50
2022/04/15 02:03:44;;;;;;;;;1.50;1.00;;;;;;;;5082131;27;51154;-48
2022/04/15 02:06:28;;;;;;;;;1.50;1.00;;;;;;;;5081669;27;51162;-49
2022/04/15 02:09:17;;;;;;;;;0.50;0.00;;;;;;;;5081922;27;51070;-52
2022/04/15 02:12:01;;;;;;;;;2.25;0.00;;;;;;;;5081484;27;53302;-51
2022/04/15 02:14:50;;;;;;;;;1.75;0.00;;;;;;;;5081875;27;51341;-47
2022/04/15 02:17:38;;;;;;;;;0.00;0.00;;;;;;;;5081380;27;51186;-51
2022/04/15 02:20:23;;;;;;;;;2.00;0.00;;;;;;;;5061465;27;51252;-49
2022/04/15 02:23:08;;;;;;;;;4.75;0.75;;;;;;;;5081028;27;51422;-49
2022/04/15 02:25:54;;;;;;;;;0.75;0.75;;;;;;;;5081216;27;51131;-49
2022/04/15 02:28:37;;;;;;;;;2.50;0.75;;;;;;;;5080967;27;51065;-50
2022/04/15 02:31:23;;;;;;;;;1.75;0.75;;;;;;;;5080981;27;51078;-46
2022/04/15 02:34:08;;;;;;;;;3.00;0.00;;;;;;;;5080668;27;51241;-49
2022/04/15 02:36:54;;;;;;;;;1.25;1.25;;;;;;;;5080889;27;50981;-50
2022/04/15 02:39:47;;;;;;;;;0.75;0.00;;;;;;;;5081199;27;51031;-51
2022/04/15 02:42:31;;;;;;;;;0.75;0.75;;;;;;;;5065303;27;51138;-50
2022/04/15 02:45:16;;;;;;;;;1.50;1.00;;;;;;;;5065877;27;51113;-50
2022/04/15 02:48:04;;;;;;;;;3.75;1.00;;;;;;;;5080959;27;51128;-51
2022/04/15 02:50:49;;;;;;;;;4.25;0.75;;;;;;;;5081145;27;51119;-51
2022/04/15 02:53:33;;;;;;;;;1.50;0.00;;;;;;;;5080689;27;51235;-49
2022/04/15 02:56:21;;;;;;;;;1.75;0.00;;;;;;;;5080831;27;51139;-49
2022/04/15 02:59:07;;;;;;;;;2.75;0.75;;;;;;;;5080774;27;51957;-50
2022/04/15 03:01:53;;;;;;;;;1.00;0.00;;;;;;;;5080242;27;51241;-48
2022/04/15 03:04:37;;;;;;;;;0.00;0.00;;;;;;;;5077947;27;51127;-49
2022/04/15 03:07:21;;;;;;;;;0.25;0.25;;;;;;;;5080404;27;51190;-48
2022/04/15 03:10:09;;;;;;;;;2.50;0.25;;;;;;;;5080751;27;51215;-50
2022/04/15 03:13:16;;;;;;;;;4.50;0.00;;;;;;;;5080002;27;51047;-52
2022/04/15 03:16:04;;;;;;;;;2.00;0.75;;;;;;;;5079636;27;51137;-48
2022/04/15 03:18:50;;;;;;;;;0.75;0.75;;;;;;;;5080596;27;51084;-50
2022/04/15 03:21:38;;;;;;;;;2.25;0.75;;;;;;;;5080432;27;51071;-51
2022/04/15 03:24:24;;;;;;;;;4.00;1.00;;;;;;;;5079777;27;51227;-47
2022/04/15 03:27:08;;;;;;;;;0.50;0.00;;;;;;;;5080102;27;51146;-48
2022/04/15 03:29:52;;;;;;;;;2.75;0.00;;;;;;;;5080418;27;51433;-49
2022/04/15 03:32:47;;;;;;;;;0.50;0.50;;;;;;;;5079963;27;51043;-49
2022/04/15 03:35:33;;;;;;;;;1.00;1.00;;;;;;;;5080129;27;51130;-47
2022/04/15 03:38:19;;;;;;;;;1.25;0.00;;;;;;;;5079895;27;51100;-49
2022/04/15 03:41:04;;;;;;;;;2.00;0.00;;;;;;;;5079978;27;51190;-49
2022/04/15 03:43:50;;;;;;;;;1.25;0.25;;;;;;;;5079980;27;51175;-49
2022/04/15 03:46:35;;;;;;;;;2.00;0.00;;;;;;;;5080062;27;51095;-49
2022/04/15 03:49:25;;;;;;;;;1.75;0.75;;;;;;;;5080040;27;51067;-49
2022/04/15 03:52:10;;;;;;;;;2.75;0.75;;;;;;;;5079269;27;51225;-47
2022/04/15 03:54:58;;;;;;;;;3.00;1.00;;;;;;;;5079838;27;51298;-47
2022/04/15 03:57:56;;;;;;;;;4.75;0.25;;;;;;;;5079592;27;51219;-51
2022/04/15 04:01:03;;;;;;;;;1.00;1.00;;;;;;;;5079936;27;51112;-48
2022/04/15 04:03:51;;;;;;;;;0.75;0.75;;;;;;;;5079885;28;51523;-48
2022/04/15 04:06:41;;;;;;;;;0.50;0.50;;;;;;;;5079592;28;51222;-49
2022/04/15 04:09:34;;;;;;;;;2.00;1.25;;;;;;;;5079453;28;51221;-48
2022/04/15 04:12:18;;;;;;;;;0.75;0.75;;;;;;;;5080036;28;51269;-50
2022/04/15 04:15:05;;;;;;;;;3.00;0.75;;;;;;;;5079562;28;51484;-51
2022/04/15 04:17:51;;;;;;;;;2.50;0.75;;;;;;;;5079655;28;51245;-48
2022/04/15 04:20:36;;;;;;;;;5.25;1.25;;;;;;;;5079781;28;51040;-48
2022/04/15 04:23:23;;;;;;;;;3.75;1.00;;;;;;;;5076610;28;51035;-49
2022/04/15 04:26:09;;;;;;;;;1.00;0.75;;;;;;;;5074198;28;51071;-51
2022/04/15 04:28:54;;;;;;;;;3.00;0.75;;;;;;;;5082055;27;51076;-48
2022/04/15 04:31:42;;;;;;;;;2.75;0.75;;;;;;;;5083512;27;51160;-48
2022/04/15 04:34:28;;;;;;;;;1.75;0.75;;;;;;;;5083539;27;51115;-49
2022/04/15 04:37:13;;;;;;;;;1.00;1.00;;;;;;;;5083431;27;51040;-52
2022/04/15 04:40:00;;;;;;;;;1.75;0.75;;;;;;;;5083207;27;51092;-50
2022/04/15 04:42:47;;;;;;;;;2.25;0.75;;;;;;;;5083268;27;51142;-52
2022/04/15 04:45:32;;;;;;;;;1.75;1.25;;;;;;;;5083182;27;51190;-52
2022/04/15 04:48:19;;;;;;;;;1.25;1.25;;;;;;;;5067629;27;51175;-51
2022/04/15 04:51:04;;;;;;;;;4.75;2.75;;;;;;;;5083475;27;51090;-47
2022/04/15 04:53:48;;;;;;;;;7.50;5.00;;;;;;;;5082840;27;50982;-51
2022/04/15 04:56:33;;;;;;;;;6.25;6.25;;;;;;;;5082665;27;51122;-48
2022/04/15 04:59:17;;;;;;;;;8.00;8.00;;;;;;;;5083008;27;51128;-50
2022/04/15 05:02:02;;;;;;;;;11.75;11.75;;;;;;;;5082975;27;51047;-51
2022/04/15 05:04:46;;;;;;;;;22.25;17.25;;;;;;;;5082492;27;51259;-50
2022/04/15 05:07:37;;;;;;;;;19.75;19.00;;;;;;;;5082952;27;51143;-51
2022/04/15 05:10:22;;;;;;;;;19.75;14.75;;;;;;;;5080565;27;51878;-50
2022/04/15 05:13:06;;;;;;;;;22.75;18.50;;;;;;;;5080250;27;51134;-51
2022/04/15 05:15:52;;;;;;;;;17.75;16.25;;;;;;;;5082285;27;51097;-46
2022/04/15 05:18:39;;;;;;;;;18.50;15.00;;;;;;;;5082550;27;51558;-48
2022/04/15 05:21:23;;;;;;;;;17.00;15.00;;;;;;;;5082451;27;51156;-49
2022/04/15 05:24:09;;;;;;;;;16.00;13.25;;;;;;;;5082447;27;51103;-50
2022/04/15 05:26:53;;;;;;;;;19.50;16.00;;;;;;;;5083166;27;50965;-49
2022/04/15 05:29:37;;;;;;;;;14.50;12.75;;;;;;;;5066567;27;51029;-51
2022/04/15 05:32:22;;;;;;;;;17.50;16.25;;;;;;;;5082305;27;51112;-49
2022/04/15 05:35:08;;;;;;;;;20.75;19.00;;;;;;;;5082613;27;51376;-49
2022/04/15 05:37:53;;;;;;;;;24.25;19.75;;;;;;;;5077416;27;51131;-52
2022/04/15 05:40:38;;;;;;;;;23.25;21.75;;;;;;;;5070527;27;51630;-51
2022/04/15 05:43:22;;;;;;;;;25.50;23.75;;;;;;;;5081039;27;51524;-50
2022/04/15 05:46:10;;;;;;;;;22.50;21.00;;;;;;;;5080319;27;52385;-50
2022/04/15 05:48:54;;;;;;;;;28.25;26.00;;;;;;;;5082283;27;51180;-47
2022/04/15 05:51:40;;;;;;;;;22.00;21.25;;;;;;;;5088484;27;51106;-49
2022/04/15 05:54:24;;;;;;;;;19.50;19.50;;;;;;;;5077999;27;51652;-50
2022/04/15 05:57:09;;;;;;;;;22.50;21.25;;;;;;;;5081336;27;51178;-47
2022/04/15 05:59:54;;;;;;;;;20.25;20.25;;;;;;;;5082046;27;51512;-47
2022/04/15 06:02:39;;;;;;;;;23.50;21.25;;;;;;;;5081775;27;51238;-48
2022/04/15 06:05:24;;;;;;;;;29.25;23.00;;;;;;;;5081366;27;50990;-47
2022/04/15 06:08:08;;;;;;;;;34.00;28.00;;;;;;;;5082305;27;51249;-51
2022/04/15 06:10:53;;;;;;;;;32.50;27.25;;;;;;;;5081464;27;51152;-47
2022/04/15 06:13:42;;;;;;;;;34.50;30.00;;;;;;;;5073376;27;51043;-52
2022/04/15 06:16:32;;;;;;;;;24.50;19.75;;;;;;;;5071133;27;51190;-49
2022/04/15 06:19:22;;;;;;;;;25.75;21.25;;;;;;;;5071065;27;51497;-49
2022/04/15 06:22:06;;;;;;;;;24.25;24.25;;;;;;;;5068568;27;51177;-52
2022/04/15 06:24:50;;;;;;;;;30.75;27.00;;;;;;;;5063280;27;51497;-48
2022/04/15 06:27:35;;;;;;;;;35.00;29.50;;;;;;;;5080401;27;51072;-47
2022/04/15 06:30:21;;;;;;;;;39.25;33.00;;;;;;;;5079340;27;51031;-47
2022/04/15 06:33:06;;;;;;;;;39.00;31.00;;;;;;;;5077744;27;51569;-49
2022/04/15 06:35:51;;;;;;;;;39.00;32.75;;;;;;;;5078321;27;51081;-50
2022/04/15 06:38:35;;;;;;;;;37.25;32.75;;;;;;;;5076863;27;51193;-47
2022/04/15 06:41:19;;;;;;;;;31.75;28.25;;;;;;;;5080494;27;51063;-47
2022/04/15 06:44:04;;;;;;;;;29.50;27.75;;;;;;;;5077370;27;51060;-53
2022/04/15 06:46:48;;;;;;;;;34.75;31.50;;;;;;;;5076849;27;50955;-49
2022/04/15 06:49:34;;;;;;;;;30.50;24.75;;;;;;;;5072916;27;51089;-49
2022/04/15 06:52:23;;;;;;;;;32.75;27.00;;;;;;;;5079707;27;51197;-47
2022/04/15 06:55:08;;;;;;;;;32.25;28.75;;;;;;;;5079677;27;51118;-47
2022/04/15 06:57:52;;;;;;;;;32.25;29.00;;;;;;;;5074399;27;51510;-48
2022/04/15 07:00:37;;;;;;;;;34.50;29.00;;;;;;;;5077013;27;51563;-51
2022/04/15 07:03:24;;;;;;;;;32.00;29.25;;;;;;;;5072884;27;51068;-49
2022/04/15 07:06:13;;;;;;;;;36.25;32.25;;;;;;;;5073276;27;51130;-48
2022/04/15 07:09:01;;;;;;;;;34.50;28.75;;;;;;;;5077425;27;51138;-51
2022/04/15 07:11:49;;;;;;;;;31.75;30.00;;;;;;;;5080062;27;51418;-49
2022/04/15 07:14:33;;;;;;;;;34.25;29.75;;;;;;;;5075178;27;51099;-50
2022/04/15 07:17:18;;;;;;;;;36.75;31.50;;;;;;;;5075055;27;51392;-48
2022/04/15 07:20:04;;;;;;;;;37.00;29.25;;;;;;;;5079920;27;51104;-53
2022/04/15 07:22:54;;;;;;;;;33.00;29.75;;;;;;;;5078807;27;51115;-48
2022/04/15 07:25:39;;;;;;;;;35.00;28.75;;;;;;;;5075209;27;51702;-52
2022/04/15 07:28:28;;;;;;;;;35.00;31.25;;;;;;;;5078148;27;51226;-47
2022/04/15 07:31:13;;;;;;;;;42.00;34.25;;;;;;;;5079411;27;51203;-48
2022/04/15 07:33:58;;;;;;;;;43.50;36.00;;;;;;;;5078870;27;51391;-50
2022/04/15 07:36:43;;;;;;;;;44.75;35.75;;;;;;;;5072744;27;51102;-47
2022/04/15 07:39:30;;;;;;;;;46.50;37.25;;;;;;;;5075695;27;51061;-48
2022/04/15 07:42:16;;;;;;;;;40.25;32.50;;;;;;;;5079056;27;51114;-47
2022/04/15 07:45:01;;;;;;;;;43.25;33.00;;;;;;;;5078802;27;51130;-49
2022/04/15 07:47:47;;;;;;;;;33.50;30.50;;;;;;;;5073889;27;51464;-49
2022/04/15 07:50:36;;;;;;;;;34.25;30.75;;;;;;;;5069809;27;51614;-49
2022/04/15 07:53:21;;;;;;;;;65.50;53.25;;;;;;;;5074847;27;51138;-49
2022/04/15 07:56:10;;;;;;;;;50.00;38.75;;;;;;;;5073047;27;51040;-47
2022/04/15 07:58:54;;;;;;;;;48.00;39.25;;;;;;;;5078617;27;51253;-47
2022/04/15 08:01:43;;;;;;;;;42.25;35.00;;;;;;;;5078160;28;51128;-50
2022/04/15 08:04:34;;;;;;;;;36.50;31.50;;;;;;;;5078070;28;51115;-49
2022/04/15 08:07:29;;;;;;;;;39.50;32.50;;;;;;;;5077909;28;51140;-47
2022/04/15 08:10:14;;;;;;;;;44.75;34.00;;;;;;;;5077304;28;51111;-48
2022/04/15 08:13:03;;;;;;;;;41.00;31.00;;;;;;;;5078816;28;51142;-47
2022/04/15 08:16:05;;;;;;;;;40.75;32.75;;;;;;;;5078282;28;51556;-49
2022/04/15 08:18:57;;;;;;;;;42.25;33.75;;;;;;;;5078783;28;51123;-49
2022/04/15 08:21:42;;;;;;;;;37.00;30.75;;;;;;;;5078783;28;50961;-50
2022/04/15 08:24:27;;;;;;;;;34.00;30.75;;;;;;;;5078119;28;51128;-48
2022/04/15 08:27:11;;;;;;;;;41.00;34.25;;;;;;;;5078261;28;51203;-48
2022/04/15 08:29:57;;;;;;;;;43.75;36.00;;;;;;;;5077647;28;51633;-47
2022/04/15 08:32:51;;;;;;;;;45.25;37.75;;;;;;;;5062699;28;51010;-48
2022/04/15 08:35:37;;;;;;;;;40.25;32.00;;;;;;;;5078932;28;51052;-48
2022/04/15 08:38:24;;;;;;;;;41.75;34.25;;;;;;;;5077910;28;51087;-48
2022/04/15 08:41:11;;;;;;;;;35.50;31.75;;;;;;;;5078693;28;51537;-48
2022/04/15 08:44:21;;;;;;;;;36.00;30.75;;;;;;;;5077858;28;51164;-47
2022/04/15 08:47:06;;;;;;;;;42.00;32.25;;;;;;;;5078312;28;50979;-53
2022/04/15 08:49:50;;;;;;;;;43.00;34.75;;;;;;;;5078049;28;51518;-53
2022/04/15 08:52:35;;;;;;;;;41.00;34.25;;;;;;;;5078625;28;51113;-51
2022/04/15 08:55:23;;;;;;;;;38.00;31.25;;;;;;;;5078479;28;51462;-51
2022/04/15 08:58:07;;;;;;;;;36.50;31.25;;;;;;;;5078275;28;51332;-49
2022/04/15 09:00:51;;;;;;;;;36.75;31.25;;;;;;;;5076263;28;51163;-49
2022/04/15 09:03:36;;;;;;;;;35.75;28.75;;;;;;;;5078254;28;51193;-50
2022/04/15 09:06:20;;;;;;;;;32.50;27.25;;;;;;;;5078492;28;51520;-52
2022/04/15 09:09:08;;;;;;;;;37.75;31.25;;;;;;;;5077772;28;51087;-50
2022/04/15 09:11:52;;;;;;;;;36.75;32.00;;;;;;;;5078671;28;51118;-49
2022/04/15 09:14:38;;;;;;;;;31.75;29.50;;;;;;;;5075468;27;51114;-50
2022/04/15 09:17:23;;;;;;;;;34.75;30.50;;;;;;;;5078941;27;51088;-49
2022/04/15 09:20:09;;;;;;;;;33.75;30.00;;;;;;;;5080497;27;51574;-49
2022/04/15 09:22:55;;;;;;;;;26.75;26.00;;;;;;;;5080191;27;51169;-50
2022/04/15 09:25:41;;;;;;;;;10.75;9.25;;;;;;;;5082511;27;51078;-50
2022/04/15 09:28:30;;;;;;;;;11.50;11.50;;;;;;;;5078857;27;51380;-51
2022/04/15 09:31:16;;;;;;;;;6.50;4.25;;;;;;;;5065079;27;51219;-52
2022/04/15 09:34:14;;;;;;;;;9.00;4.50;;;;;;;;5082068;27;51269;-50
2022/04/15 09:37:08;;;;;;;;;12.75;12.00;;;;;;;;5081985;27;51092;-48
2022/04/15 09:40:09;;;;;;;;;23.00;19.00;;;;;;;;5081071;27;51099;-49
2022/04/15 09:43:15;;;;;;;;;5.50;4.50;;;;;;;;5081793;27;51197;-50
2022/04/15 09:46:08;;;;;;;;;8.50;7.00;;;;;;;;5080549;27;51399;-50
2022/04/15 09:49:07;;;;;;;;;10.25;8.00;;;;;;;;5081344;27;51048;-49
2022/04/15 09:51:54;;;;;;;;;3.50;3.50;;;;;;;;5081756;27;51246;-50
2022/04/15 09:54:40;;;;;;;;;8.25;6.00;;;;;;;;5081126;27;51627;-47
2022/04/15 09:57:33;;;;;;;;;7.25;5.00;;;;;;;;5079299;27;51202;-47
2022/04/15 10:00:21;;;;;;;;;4.00;2.75;;;;;;;;5080161;27;51103;-50
2022/04/15 10:03:25;;;;;;;;;4.75;4.75;;;;;;;;5081161;27;51107;-49
2022/04/15 10:06:13;;;;;;;;;3.00;3.00;;;;;;;;5079259;27;50977;-49
2022/04/15 10:09:02;;;;;;;;;6.50;2.75;;;;;;;;5080463;27;51251;-48
2022/04/15 10:11:48;;;;;;;;;5.25;3.50;;;;;;;;5081289;27;51154;-50
2022/04/15 10:14:40;;;;;;;;;9.50;8.75;;;;;;;;5079625;27;51040;-49
2022/04/15 10:17:27;;;;;;;;;4.75;3.50;;;;;;;;5081113;27;51204;-48
2022/04/15 10:20:18;;;;;;;;;6.25;4.25;;;;;;;;5080807;27;51146;-46
2022/04/15 10:23:03;;;;;;;;;5.00;4.00;;;;;;;;5079955;27;51128;-50
2022/04/15 10:25:49;;;;;;;;;8.25;5.50;;;;;;;;5080024;27;51150;-52
2022/04/15 10:28:38;;;;;;;;;4.00;2.50;;;;;;;;5081005;27;51020;-49
2022/04/15 10:31:35;;;;;;;;;9.00;5.50;;;;;;;;5079953;27;51198;-48
2022/04/15 10:34:21;;;;;;;;;7.25;5.25;;;;;;;;5080564;27;51266;-48
2022/04/15 10:37:09;;;;;;;;;6.25;5.00;;;;;;;;5079084;27;51846;-48
2022/04/15 10:39:54;;;;;;;;;3.00;0.00;;;;;;;;5069692;27;51196;-47
2022/04/15 10:42:43;;;;;;;;;4.00;2.00;;;;;;;;5078380;27;51162;-48
2022/04/15 10:45:28;;;;;;;;;3.00;3.00;;;;;;;;5078592;27;51278;-46
2022/04/15 10:48:12;;;;;;;;;1.25;1.25;;;;;;;;5080253;27;51458;-52
2022/04/15 10:51:12;;;;;;;;;4.50;3.00;;;;;;;;5078976;27;51081;-50
2022/04/15 10:54:20;;;;;;;;;4.00;2.50;;;;;;;;5080971;27;51126;-51
2022/04/15 10:57:24;;;;;;;;;1.00;1.00;;;;;;;;5071553;27;51142;-52
2022/04/15 11:03:37;;;;;;;;;2.00;2.00;;;;;;;;5079574;27;51463;-51
2022/04/15 11:06:39;;;;;;;;;2.50;1.75;;;;;;;;5076992;27;51085;-49
2022/04/15 11:09:41;;;;;;;;;5.25;4.00;;;;;;;;5081059;27;51097;-50
2022/04/15 11:12:36;;;;;;;;;4.75;3.75;;;;;;;;5081911;27;51096;-49
2022/04/15 11:15:46;;;;;;;;;3.50;3.50;;;;;;;;5081280;27;51101;-47
2022/04/15 11:18:52;;;;;;;;;6.00;3.25;;;;;;;;5086355;27;50480;-50
2022/04/15 11:21:50;;;;;;;;;5.75;3.25;;;;;;;;5080676;27;51399;-47
2022/04/15 11:24:38;;;;;;;;;3.75;1.75;;;;;;;;5080543;27;52192;-51
2022/04/15 11:27:23;;;;;;;;;6.25;6.25;;;;;;;;5079377;27;51221;-48
2022/04/15 11:30:11;;;;;;;;;3.25;3.25;;;;;;;;5078194;27;51063;-49
2022/04/15 11:32:56;;;;;;;;;7.00;3.00;;;;;;;;5079332;27;51104;-51
2022/04/15 11:35:42;;;;;;;;;4.00;4.00;;;;;;;;5080461;27;51083;-47
2022/04/15 11:38:26;;;;;;;;;3.25;3.25;;;;;;;;5078786;27;51147;-48
2022/04/15 11:41:21;;;;;;;;;2.75;2.75;;;;;;;;5080111;27;51062;-51
2022/04/15 11:44:08;;;;;;;;;4.50;3.25;;;;;;;;5080069;27;51087;-49
2022/04/15 11:46:53;;;;;;;;;4.75;3.00;;;;;;;;5080279;27;51028;-51
2022/04/15 11:49:44;;;;;;;;;4.25;4.25;;;;;;;;5079945;27;51426;-49
2022/04/15 11:52:28;;;;;;;;;7.00;3.25;;;;;;;;5079746;27;51088;-47
2022/04/15 11:55:17;;;;;;;;;5.00;4.00;;;;;;;;5075691;27;51325;-48
2022/04/15 11:58:01;;;;;;;;;3.00;2.50;;;;;;;;5079097;27;51118;-47
2022/04/15 12:00:56;;;;;;;;;4.75;3.00;;;;;;;;5079820;27;51080;-49
2022/04/15 12:03:43;;;;;;;;;4.25;4.25;;;;;;;;5079129;27;51400;-49
2022/04/15 12:06:40;;;;;;;;;4.75;3.25;;;;;;;;5079542;28;51903;-52
2022/04/15 12:09:26;;;;;;;;;4.75;4.00;;;;;;;;5079573;28;51193;-52
2022/04/15 12:12:10;;;;;;;;;7.25;5.25;;;;;;;;5080088;28;51169;-49
2022/04/15 12:14:56;;;;;;;;;5.00;4.00;;;;;;;;5079808;28;51235;-50
2022/04/15 12:17:41;;;;;;;;;5.00;2.25;;;;;;;;5079270;28;51103;-49
2022/04/15 12:20:29;;;;;;;;;2.00;2.00;;;;;;;;5079197;28;51522;-51
2022/04/15 12:23:19;;;;;;;;;2.75;1.00;;;;;;;;5079669;28;51111;-51
2022/04/15 12:26:13;;;;;;;;;2.75;2.75;;;;;;;;5076604;28;51256;-48
2022/04/15 12:32:25;;;;;;;;;3.25;3.25;;;;;;;;5078966;28;51169;-49
2022/04/15 12:35:11;;;;;;;;;7.50;7.50;;;;;;;;5074649;28;51066;-49
2022/04/15 12:38:00;;;;;;;;;4.00;4.00;;;;;;;;5074767;28;51186;-50
2022/04/15 12:40:45;;;;;;;;;6.00;3.25;;;;;;;;5078637;28;51540;-52
2022/04/15 12:43:31;;;;;;;;;3.75;3.75;;;;;;;;5062397;28;51204;-52
2022/04/15 12:46:37;;;;;;;;;4.25;4.25;;;;;;;;5062984;28;51422;-49
2022/04/15 12:49:27;;;;;;;;;4.50;2.50;;;;;;;;5073612;27;51217;-51
2022/04/15 12:52:15;;;;;;;;;4.00;4.00;;;;;;;;5079796;27;51056;-48
2022/04/15 12:55:08;;;;;;;;;7.00;2.75;;;;;;;;5077973;27;51233;-53
2022/04/15 12:57:54;;;;;;;;;4.50;2.00;;;;;;;;5060950;27;51454;-49
2022/04/15 13:00:50;;;;;;;;;0.00;0.00;;;;;;;;5061349;27;51190;-50
2022/04/15 13:03:36;;;;;;;;;4.00;1.75;;;;;;;;5079044;27;51138;-49
2022/04/15 13:06:24;;;;;;;;;2.75;2.75;;;;;;;;5078023;27;51715;-49
2022/04/15 13:09:10;;;;;;;;;1.25;1.00;;;;;;;;5077958;27;51143;-50
2022/04/15 13:11:58;;;;;;;;;1.50;0.00;;;;;;;;5077506;27;51521;-50
2022/04/15 13:14:42;;;;;;;;;1.00;1.00;;;;;;;;5076906;27;51203;-51
2022/04/15 13:17:30;;;;;;;;;1.50;0.00;;;;;;;;5077711;27;51049;-47
2022/04/15 13:20:14;;;;;;;;;4.75;2.00;;;;;;;;5078300;27;51145;-47
2022/04/15 13:23:01;;;;;;;;;2.00;1.75;;;;;;;;5080389;27;51225;-49
2022/04/15 13:25:45;;;;;;;;;3.00;2.00;;;;;;;;5077560;27;51067;-50
2022/04/15 13:28:52;;;;;;;;;3.00;3.00;;;;;;;;5077179;27;51111;-46
2022/04/15 13:31:41;;;;;;;;;2.50;1.75;;;;;;;;5076824;27;51164;-46
2022/04/15 13:34:32;;;;;;;;;5.75;2.50;;;;;;;;5078252;27;51107;-48
2022/04/15 13:37:17;;;;;;;;;6.25;3.25;;;;;;;;5061699;27;51671;-47
2022/04/15 13:40:08;;;;;;;;;2.00;2.00;;;;;;;;5078504;27;51554;-46
2022/04/15 13:42:55;;;;;;;;;2.75;2.75;;;;;;;;5074023;27;51092;-48
2022/04/15 13:45:40;;;;;;;;;3.25;1.50;;;;;;;;5073826;27;51344;-47
2022/04/15 13:48:25;;;;;;;;;4.75;3.00;;;;;;;;5054698;27;51162;-47
2022/04/15 13:51:28;;;;;;;;;2.75;2.75;;;;;;;;5062959;27;51164;-48
2022/04/15 13:57:28;;;;;;;;;3.00;3.00;;;;;;;;5075134;27;51562;-48
2022/04/15 14:00:15;;;;;;;;;6.00;3.75;;;;;;;;5074368;27;51382;-46
2022/04/15 14:02:59;;;;;;;;;2.00;2.00;;;;;;;;5057467;27;51280;-46
2022/04/15 14:05:46;;;;;;;;;3.25;2.25;;;;;;;;5079160;27;51092;-50
2022/04/15 14:08:30;;;;;;;;;3.75;3.25;;;;;;;;5076368;27;51364;-48
2022/04/15 14:11:14;;;;;;;;;5.50;3.25;;;;;;;;5075353;27;51269;-49
2022/04/15 14:14:00;;;;;;;;;3.00;2.25;;;;;;;;5079040;27;51380;-48
2022/04/15 14:16:47;;;;;;;;;7.25;4.50;;;;;;;;5076855;27;51152;-49
2022/04/15 14:19:35;;;;;;;;;6.25;3.75;;;;;;;;5076364;27;51284;-47
2022/04/15 14:22:21;;;;;;;;;2.25;2.25;;;;;;;;5076857;27;51104;-47
2022/04/15 14:25:07;;;;;;;;;3.00;2.50;;;;;;;;5075324;27;51325;-47
2022/04/15 14:27:52;;;;;;;;;4.50;3.50;;;;;;;;5079564;27;51465;-48
2022/04/15 14:30:39;;;;;;;;;4.25;2.50;;;;;;;;5079334;27;51055;-49
2022/04/15 14:33:45;;;;;;;;;3.00;2.00;;;;;;;;5074026;27;51446;-47
2022/04/15 14:36:32;;;;;;;;;5.00;2.75;;;;;;;;5077148;27;51142;-48
2022/04/15 14:39:19;;;;;;;;;1.25;1.25;;;;;;;;5077726;27;51356;-48
2022/04/15 14:42:19;;;;;;;;;0.75;0.75;;;;;;;;5060272;27;51000;-51
2022/04/15 14:45:03;;;;;;;;;2.75;1.50;;;;;;;;5077643;27;51143;-47
2022/04/15 14:47:52;;;;;;;;;2.00;1.00;;;;;;;;5077183;27;51107;-49
2022/04/15 14:50:37;;;;;;;;;4.25;1.00;;;;;;;;5077512;27;51087;-49
2022/04/15 14:53:23;;;;;;;;;3.00;1.75;;;;;;;;5075148;27;51118;-47
2022/04/15 14:56:18;;;;;;;;;2.75;1.00;;;;;;;;5076483;27;51067;-47
2022/04/15 14:59:04;;;;;;;;;3.50;1.50;;;;;;;;5077323;27;51625;-47
2022/04/15 15:01:50;;;;;;;;;9.25;6.75;;;;;;;;5076942;27;51317;-48
2022/04/15 15:04:49;;;;;;;;;7.50;3.75;;;;;;;;5075187;27;51517;-47
2022/04/15 15:07:35;;;;;;;;;3.25;1.50;;;;;;;;5077103;27;51092;-46
2022/04/15 15:10:25;;;;;;;;;3.75;2.00;;;;;;;;5074614;27;51249;-50
2022/04/15 15:13:13;;;;;;;;;3.25;2.00;;;;;;;;5068994;27;51633;-48
2022/04/15 15:16:09;;;;;;;;;2.75;1.50;;;;;;;;5075431;27;51104;-49
2022/04/15 15:18:54;;;;;;;;;2.00;0.00;;;;;;;;5071215;27;51308;-52
2022/04/15 15:21:39;;;;;;;;;2.00;2.00;;;;;;;;5075594;27;51082;-47
2022/04/15 15:30:36;;;;;;;;;2.25;1.00;;;;;;;;5079112;27;51146;-48
2022/04/15 15:33:21;;;;;;;;;0.00;0.00;;;;;;;;5076080;27;51250;-49
2022/04/15 15:36:09;;;;;;;;;1.00;1.00;;;;;;;;5078221;27;51044;-50
2022/04/15 15:38:53;;;;;;;;;1.25;1.25;;;;;;;;5075519;27;51570;-46
2022/04/15 15:41:43;;;;;;;;;1.50;1.25;;;;;;;;5075643;27;51186;-49
2022/04/15 15:44:27;;;;;;;;;1.25;1.25;;;;;;;;5076206;27;52212;-48
2022/04/15 15:47:12;;;;;;;;;1.25;0.75;;;;;;;;5075470;27;51004;-47
2022/04/15 15:49:56;;;;;;;;;0.50;0.50;;;;;;;;5075892;27;51457;-47
2022/04/15 15:52:44;;;;;;;;;3.50;2.25;;;;;;;;5073630;27;51564;-48
2022/04/15 15:55:28;;;;;;;;;2.50;1.00;;;;;;;;5073355;27;51372;-48
2022/04/15 15:58:14;;;;;;;;;1.50;0.50;;;;;;;;5077095;27;51221;-48
2022/04/15 16:00:58;;;;;;;;;3.00;3.00;;;;;;;;5074337;27;51213;-47
2022/04/15 16:03:43;;;;;;;;;3.00;2.00;;;;;;;;5076852;27;51096;-51
2022/04/15 16:06:27;;;;;;;;;2.00;0.50;;;;;;;;5069419;27;51234;-48
2022/04/15 16:09:12;;;;;;;;;1.00;1.00;;;;;;;;5073528;28;51200;-51
2022/04/15 16:11:56;;;;;;;;;4.25;1.25;;;;;;;;5076646;28;51455;-50
2022/04/15 16:14:41;;;;;;;;;2.00;1.25;;;;;;;;5077139;28;51207;-49
2022/04/15 16:17:26;;;;;;;;;1.00;1.00;;;;;;;;5075431;28;51107;-49
2022/04/15 16:20:11;;;;;;;;;3.00;1.25;;;;;;;;5077935;28;51047;-49
2022/04/15 16:22:56;;;;;;;;;0.00;0.00;;;;;;;;5075454;27;51250;-47
2022/04/15 16:25:40;;;;;;;;;0.00;0.00;;;;;;;;5079748;27;51311;-48
2022/04/15 16:28:25;;;;;;;;;0.00;0.00;;;;;;;;5080938;27;51509;-47
2022/04/15 16:31:09;;;;;;;;;0.00;0.00;;;;;;;;5083259;27;51064;-47
2022/04/15 16:33:54;;;;;;;;;2.50;1.00;;;;;;;;5082158;27;51056;-47
2022/04/15 16:36:38;;;;;;;;;0.50;0.00;;;;;;;;5083408;27;51183;-48
2022/04/15 16:39:22;;;;;;;;;0.00;0.00;;;;;;;;5081680;27;51118;-46
2022/04/15 16:42:07;;;;;;;;;0.75;0.00;;;;;;;;5081712;27;51140;-48
2022/04/15 16:44:51;;;;;;;;;1.00;0.00;;;;;;;;5082613;27;51174;-47
2022/04/15 16:47:36;;;;;;;;;0.50;0.50;;;;;;;;5082540;27;51145;-47
2022/04/15 16:50:20;;;;;;;;;2.00;2.00;;;;;;;;5082973;27;51142;-46
2022/04/15 16:53:05;;;;;;;;;0.75;0.75;;;;;;;;5078675;27;51098;-48
2022/04/15 16:58:52;;;;;;;;;1.00;1.00;;;;;;;;5080778;27;51538;-49